Time;durP1;ratioP1;P1;durP2;ratioP2;P2;SDS_P1;SDS_P2;PMS_P1;PMS_P2;Temp;Humidity;BMP_temperature;BMP_pressure;BME280_temperature;BME280_humidity;BME280_pressure;Samples;Min_cycle;Max_cycle;Signal;HPM_P1;HPM_P2
2021/08/18 00:00:58;;;;;;;16.70;14.10;;;16.50;97.70;;;;;;5055536;28;20951;-77
2021/08/18 00:03:26;;;;;;;16.03;14.37;;;16.50;97.70;;;;;;5056296;28;20484;-77
2021/08/18 00:05:53;;;;;;;18.40;13.73;;;16.50;97.80;;;;;;5057740;28;20536;-77
2021/08/18 00:08:19;;;;;;;15.87;14.33;;;16.50;97.80;;;;;;5057810;28;20839;-77
2021/08/18 00:10:47;;;;;;;16.57;14.87;;;16.50;97.70;;;;;;5058658;28;20449;-77
2021/08/18 00:13:14;;;;;;;16.60;14.90;;;16.50;97.70;;;;;;5058529;28;20442;-77
2021/08/18 00:15:42;;;;;;;17.17;15.10;;;16.50;97.70;;;;;;5058446;28;20441;-77
2021/08/18 00:18:09;;;;;;;15.30;13.80;;;16.50;97.70;;;;;;5058587;28;20466;-77
2021/08/18 00:20:37;;;;;;;16.07;14.47;;;16.50;97.70;;;;;;5057826;28;20451;-77
2021/08/18 00:23:04;;;;;;;18.70;13.07;;;16.50;97.90;;;;;;5056472;28;20944;-77
2021/08/18 00:25:30;;;;;;;14.90;13.40;;;16.60;97.90;;;;;;5057883;28;20935;-77
2021/08/18 00:27:58;;;;;;;15.80;14.30;;;16.50;97.80;;;;;;5058281;28;20488;-77
2021/08/18 00:30:25;;;;;;;15.10;13.73;;;16.50;98.00;;;;;;5058377;28;20437;-77
2021/08/18 00:32:52;;;;;;;15.10;13.60;;;16.50;98.10;;;;;;5058100;28;20449;-77
2021/08/18 00:35:19;;;;;;;16.00;14.50;;;16.50;98.10;;;;;;5058102;28;20793;-77
2021/08/18 00:37:47;;;;;;;14.17;12.77;;;16.60;98.10;;;;;;5057604;28;20493;-77
2021/08/18 00:40:15;;;;;;;15.80;14.10;;;16.60;98.10;;;;;;5057751;28;20452;-77
2021/08/18 00:42:43;;;;;;;14.93;13.53;;;16.60;98.20;;;;;;5056058;28;20438;-77
2021/08/18 00:45:13;;;;;;;16.60;14.60;;;16.60;98.20;;;;;;5055815;28;20479;-77
2021/08/18 00:47:44;;;;;;;15.60;13.77;;;16.50;98.10;;;;;;5055326;28;20468;-76
2021/08/18 00:50:13;;;;;;;16.13;14.63;;;16.60;98.20;;;;;;5055019;28;20441;-76
2021/08/18 00:52:40;;;;;;;16.13;14.53;;;16.60;98.40;;;;;;5055624;28;20516;-76
2021/08/18 00:55:10;;;;;;;14.20;12.80;;;16.60;98.40;;;;;;5054718;28;20449;-76
2021/08/18 00:57:37;;;;;;;14.57;13.20;;;16.60;98.20;;;;;;5054564;28;20504;-76
2021/08/18 01:00:05;;;;;;;13.60;12.20;;;16.60;98.30;;;;;;5054690;28;20497;-77
2021/08/18 01:02:36;;;;;;;13.77;12.40;;;16.70;98.40;;;;;;5056316;28;20469;-77
2021/08/18 01:05:04;;;;;;;13.53;12.23;;;16.70;98.20;;;;;;5056897;28;20512;-77
2021/08/18 01:07:31;;;;;;;15.30;13.70;;;16.70;98.30;;;;;;5059249;28;20469;-77
2021/08/18 01:09:58;;;;;;;13.00;11.67;;;16.70;98.20;;;;;;5057102;28;20446;-77
2021/08/18 01:12:24;;;;;;;15.73;13.53;;;16.70;98.20;;;;;;5056650;28;20453;-77
2021/08/18 01:14:51;;;;;;;14.67;13.27;;;16.70;98.20;;;;;;5057517;28;20448;-77
2021/08/18 01:17:18;;;;;;;13.60;12.30;;;16.70;98.20;;;;;;5057151;28;20485;-77
2021/08/18 01:19:46;;;;;;;14.17;12.67;;;16.70;98.40;;;;;;5057460;28;20442;-77
2021/08/18 01:22:12;;;;;;;13.93;12.50;;;16.70;98.40;;;;;;5057025;28;20441;-77
2021/08/18 01:24:39;;;;;;;14.23;12.83;;;16.70;98.30;;;;;;5056878;28;20527;-77
2021/08/18 01:27:06;;;;;;;14.27;12.87;;;16.70;98.20;;;;;;5056987;28;20468;-77
2021/08/18 01:29:34;;;;;;;14.00;12.70;;;16.70;97.90;;;;;;5057295;28;20457;-77
2021/08/18 01:32:01;;;;;;;14.60;13.30;;;16.70;98.10;;;;;;5056964;28;20449;-77
2021/08/18 01:34:27;;;;;;;13.33;12.13;;;16.70;98.20;;;;;;5056650;28;20438;-77
2021/08/18 01:36:54;;;;;;;15.70;13.30;;;16.70;98.10;;;;;;5056533;28;20940;-77
2021/08/18 01:39:21;;;;;;;15.40;13.90;;;16.70;98.10;;;;;;5056804;28;20456;-78
2021/08/18 01:41:47;;;;;;;14.73;13.33;;;16.80;98.10;;;;;;5056221;28;20441;-77
2021/08/18 01:44:14;;;;;;;14.80;13.40;;;16.80;98.00;;;;;;5056588;28;20520;-77
2021/08/18 01:46:42;;;;;;;14.90;13.40;;;16.80;97.80;;;;;;5056337;28;20452;-77
2021/08/18 01:49:10;;;;;;;16.00;14.30;;;16.80;97.90;;;;;;5056188;28;20462;-77
2021/08/18 01:51:36;;;;;;;15.47;13.87;;;16.80;98.00;;;;;;5056173;28;20453;-77
2021/08/18 01:54:03;;;;;;;16.00;14.30;;;16.80;98.00;;;;;;5056028;28;20453;-77
2021/08/18 01:56:30;;;;;;;16.20;14.70;;;16.80;98.00;;;;;;5056056;28;20454;-77
2021/08/18 01:58:56;;;;;;;16.87;14.83;;;16.80;98.00;;;;;;5055386;28;20478;-77
2021/08/18 02:01:24;;;;;;;15.13;13.40;;;16.80;98.10;;;;;;5056398;28;20441;-77
2021/08/18 02:03:52;;;;;;;15.50;13.90;;;16.80;97.90;;;;;;5055460;28;20492;-77
2021/08/18 02:06:19;;;;;;;15.30;13.83;;;16.90;97.90;;;;;;5055180;28;20442;-77
2021/08/18 02:08:46;;;;;;;15.17;13.53;;;16.90;97.90;;;;;;5055548;28;20466;-77
2021/08/18 02:11:13;;;;;;;16.77;15.20;;;16.90;97.80;;;;;;5056108;28;20452;-77
2021/08/18 02:13:40;;;;;;;15.97;14.37;;;16.90;97.90;;;;;;5053180;28;20823;-77
2021/08/18 02:16:07;;;;;;;16.80;15.30;;;16.90;97.90;;;;;;5053574;28;20445;-77
2021/08/18 02:18:34;;;;;;;15.57;14.03;;;16.80;97.80;;;;;;5054121;28;20480;-77
2021/08/18 02:21:02;;;;;;;16.90;15.20;;;16.90;97.80;;;;;;5055172;28;20799;-77
2021/08/18 02:23:29;;;;;;;18.13;16.27;;;16.80;97.70;;;;;;5054194;28;20449;-77
2021/08/18 02:25:56;;;;;;;16.90;15.30;;;16.80;97.70;;;;;;5054307;28;20525;-77
2021/08/18 02:28:22;;;;;;;16.97;15.27;;;16.80;97.70;;;;;;5054608;28;20479;-77
2021/08/18 02:30:49;;;;;;;17.00;15.30;;;16.80;97.80;;;;;;5054490;28;20457;-77
2021/08/18 02:33:16;;;;;;;16.33;14.83;;;16.80;97.80;;;;;;5054094;28;20445;-77
2021/08/18 02:35:43;;;;;;;17.87;16.17;;;16.80;97.80;;;;;;5054257;28;20445;-77
2021/08/18 02:38:11;;;;;;;16.40;14.80;;;16.90;97.90;;;;;;5054129;28;20464;-77
2021/08/18 02:40:39;;;;;;;17.20;15.60;;;16.90;97.80;;;;;;5054906;28;20445;-78
2021/08/18 02:43:06;;;;;;;16.70;15.10;;;16.90;97.80;;;;;;5054316;28;20452;-77
2021/08/18 02:45:32;;;;;;;17.80;16.00;;;16.90;97.70;;;;;;5055223;28;21021;-77
2021/08/18 02:47:59;;;;;;;18.50;16.70;;;16.90;97.80;;;;;;5058343;28;20469;-77
2021/08/18 02:50:28;;;;;;;16.37;14.87;;;16.90;97.80;;;;;;5057714;28;20452;-77
2021/08/18 02:52:55;;;;;;;16.17;14.60;;;16.90;97.80;;;;;;5057597;28;20450;-77
2021/08/18 02:55:23;;;;;;;15.93;14.43;;;16.90;97.80;;;;;;5057330;28;20446;-77
2021/08/18 02:57:50;;;;;;;15.87;14.40;;;16.90;97.80;;;;;;5057332;28;20968;-77
2021/08/18 03:00:17;;;;;;;15.27;13.47;;;16.90;97.80;;;;;;5056920;28;20457;-77
2021/08/18 03:02:44;;;;;;;15.87;14.37;;;16.90;97.80;;;;;;5057354;28;20840;-77
2021/08/18 03:05:12;;;;;;;13.57;12.37;;;17.00;97.80;;;;;;5056803;28;21010;-77
2021/08/18 03:07:39;;;;;;;15.80;14.27;;;17.00;97.70;;;;;;5057060;28;20508;-77
2021/08/18 03:10:06;;;;;;;14.57;13.27;;;17.00;97.70;;;;;;5057535;28;20441;-77
2021/08/18 03:12:34;;;;;;;14.97;13.67;;;16.90;97.60;;;;;;5057469;28;20458;-77
2021/08/18 03:15:01;;;;;;;14.90;13.50;;;16.90;97.60;;;;;;5056790;28;20449;-77
2021/08/18 03:17:28;;;;;;;13.47;11.87;;;16.90;97.60;;;;;;5057007;28;20465;-77
2021/08/18 03:19:54;;;;;;;14.23;11.93;;;16.90;97.40;;;;;;5056961;28;20453;-77
2021/08/18 03:22:21;;;;;;;14.47;13.13;;;16.90;97.30;;;;;;5056839;28;20453;-77
2021/08/18 03:24:48;;;;;;;13.90;12.60;;;16.90;97.40;;;;;;5057300;28;20485;-77
2021/08/18 03:27:15;;;;;;;15.43;13.93;;;16.90;97.50;;;;;;5056509;28;20487;-77
2021/08/18 03:29:43;;;;;;;15.27;13.77;;;16.90;97.40;;;;;;5056315;28;20441;-77
2021/08/18 03:32:09;;;;;;;15.47;14.07;;;16.90;97.50;;;;;;5056690;28;20453;-77
2021/08/18 03:34:36;;;;;;;14.30;13.00;;;16.90;97.50;;;;;;5056547;28;20469;-77
2021/08/18 03:37:03;;;;;;;15.90;14.30;;;16.90;97.50;;;;;;5062502;28;20446;-77
2021/08/18 03:39:30;;;;;;;15.00;13.50;;;16.90;97.70;;;;;;5060683;28;20445;-77
2021/08/18 03:41:57;;;;;;;14.40;13.03;;;16.90;97.80;;;;;;5057276;28;20452;-77
2021/08/18 03:44:24;;;;;;;15.27;13.93;;;16.90;97.80;;;;;;5056162;28;20482;-77
2021/08/18 03:46:52;;;;;;;15.60;14.10;;;16.90;97.80;;;;;;5056304;28;20461;-77
2021/08/18 03:49:18;;;;;;;16.00;14.50;;;16.90;97.80;;;;;;5055797;28;20456;-77
2021/08/18 03:51:46;;;;;;;16.57;14.10;;;16.90;97.80;;;;;;5056077;28;20450;-77
2021/08/18 03:54:12;;;;;;;17.50;15.80;;;16.90;97.90;;;;;;5055948;28;20936;-77
2021/08/18 03:56:39;;;;;;;16.33;14.63;;;16.90;97.90;;;;;;5054824;28;20449;-77
2021/08/18 03:59:06;;;;;;;17.23;15.57;;;16.90;97.90;;;;;;5056008;28;20489;-77
2021/08/18 04:01:32;;;;;;;18.33;16.20;;;17.00;98.00;;;;;;5055822;28;20430;-77
2021/08/18 04:04:00;;;;;;;18.30;16.27;;;17.00;97.90;;;;;;5055661;28;20450;-77
2021/08/18 04:06:27;;;;;;;18.50;16.60;;;17.00;97.90;;;;;;5055777;28;20472;-77
2021/08/18 04:08:56;;;;;;;19.77;17.57;;;17.00;97.80;;;;;;5055430;28;20472;-79
2021/08/18 04:11:22;;;;;;;20.50;18.30;;;17.00;98.00;;;;;;5055875;28;20446;-77
2021/08/18 04:13:49;;;;;;;19.70;17.70;;;16.90;98.00;;;;;;5055574;28;20464;-77
2021/08/18 04:16:16;;;;;;;21.10;18.37;;;17.00;98.00;;;;;;5054907;28;20442;-77
2021/08/18 04:18:44;;;;;;;21.83;19.60;;;17.00;98.00;;;;;;5055170;28;20472;-77
2021/08/18 04:21:12;;;;;;;21.97;19.70;;;16.90;97.90;;;;;;5055166;28;20449;-77
2021/08/18 04:23:39;;;;;;;23.80;20.03;;;17.00;98.00;;;;;;5055154;28;20449;-77
2021/08/18 04:26:06;;;;;;;22.20;19.90;;;17.00;98.00;;;;;;5055273;28;20484;-77
2021/08/18 04:28:33;;;;;;;21.33;19.13;;;17.00;98.20;;;;;;5054966;28;20469;-77
2021/08/18 04:31:00;;;;;;;23.33;20.83;;;17.00;98.20;;;;;;5054804;28;20441;-77
2021/08/18 04:33:27;;;;;;;23.00;19.70;;;17.00;98.00;;;;;;5055145;28;20936;-76
2021/08/18 04:35:54;;;;;;;24.63;22.00;;;17.00;98.10;;;;;;5054970;28;20487;-77
2021/08/18 04:38:24;;;;;;;22.27;20.00;;;17.00;98.00;;;;;;5055157;28;21001;-77
2021/08/18 04:40:50;;;;;;;23.97;21.23;;;17.00;98.10;;;;;;5054636;28;20499;-76
2021/08/18 04:43:17;;;;;;;26.30;22.80;;;17.00;98.30;;;;;;5054374;28;20441;-76
2021/08/18 04:45:44;;;;;;;25.37;22.67;;;17.00;98.30;;;;;;5054309;28;20552;-76
2021/08/18 04:48:11;;;;;;;24.97;22.30;;;17.00;98.30;;;;;;5054271;28;20462;-77
2021/08/18 04:50:38;;;;;;;25.50;22.97;;;17.00;98.20;;;;;;5054519;28;20449;-74
2021/08/18 04:53:09;;;;;;;25.57;22.87;;;17.10;98.30;;;;;;5054224;28;20453;-74
2021/08/18 04:55:37;;;;;;;24.07;21.47;;;17.10;98.20;;;;;;5053839;28;20897;-74
2021/08/18 04:58:04;;;;;;;28.80;23.03;;;17.10;98.20;;;;;;5054366;28;20461;-75
2021/08/18 05:00:31;;;;;;;26.00;22.77;;;17.00;98.00;;;;;;5053830;28;20458;-75
2021/08/18 05:02:58;;;;;;;27.43;24.47;;;17.10;98.10;;;;;;5054773;28;20446;-75
2021/08/18 05:05:24;;;;;;;27.47;24.63;;;17.10;98.00;;;;;;5054636;28;20468;-74
2021/08/18 05:07:51;;;;;;;27.80;24.80;;;17.10;98.00;;;;;;5054164;28;20469;-74
2021/08/18 05:10:19;;;;;;;28.70;23.90;;;17.20;98.10;;;;;;5053629;28;20886;-75
2021/08/18 05:12:47;;;;;;;27.87;24.77;;;17.20;98.00;;;;;;5053617;28;20813;-75
2021/08/18 05:15:14;;;;;;;26.73;23.90;;;17.20;97.90;;;;;;5053938;28;20453;-75
2021/08/18 05:17:44;;;;;;;26.30;23.60;;;17.30;97.80;;;;;;5053747;28;20461;-75
2021/08/18 05:20:11;;;;;;;27.10;24.17;;;17.30;97.80;;;;;;5053781;28;20440;-75
2021/08/18 05:22:38;;;;;;;29.20;24.50;;;17.30;97.60;;;;;;5053592;28;20466;-75
2021/08/18 05:25:05;;;;;;;26.87;24.13;;;17.30;97.70;;;;;;5053632;28;20480;-75
2021/08/18 05:27:32;;;;;;;27.33;24.57;;;17.30;97.70;;;;;;5053558;28;20466;-75
2021/08/18 05:30:00;;;;;;;26.13;23.40;;;17.30;97.70;;;;;;5053610;28;20532;-75
2021/08/18 05:32:27;;;;;;;24.23;21.67;;;17.40;97.90;;;;;;5053589;28;20450;-75
2021/08/18 05:34:54;;;;;;;26.43;23.00;;;17.40;97.70;;;;;;5053558;28;20457;-74
2021/08/18 05:37:21;;;;;;;26.90;24.00;;;17.50;97.60;;;;;;5053097;28;20972;-74
2021/08/18 05:39:47;;;;;;;26.60;23.80;;;17.50;97.50;;;;;;5053447;28;20445;-74
2021/08/18 05:42:14;;;;;;;27.13;24.40;;;17.50;97.40;;;;;;5053361;28;20515;-74
2021/08/18 05:44:41;;;;;;;24.10;21.63;;;17.60;97.40;;;;;;5053566;28;20440;-74
2021/08/18 05:47:09;;;;;;;23.97;21.43;;;17.60;97.40;;;;;;5053029;28;20453;-75
2021/08/18 05:49:36;;;;;;;24.07;21.67;;;17.60;97.40;;;;;;5053109;28;20445;-75
2021/08/18 05:52:03;;;;;;;23.77;21.33;;;17.60;97.20;;;;;;5053369;28;20454;-74
2021/08/18 05:54:29;;;;;;;24.17;21.57;;;17.60;97.00;;;;;;5053315;28;20452;-74
2021/08/18 05:56:56;;;;;;;23.93;21.37;;;17.70;96.90;;;;;;5052972;28;20444;-75
2021/08/18 05:59:23;;;;;;;26.50;22.63;;;17.60;96.90;;;;;;5053317;28;20457;-74
2021/08/18 06:01:49;;;;;;;24.70;20.73;;;17.60;97.00;;;;;;5053423;28;20433;-74
2021/08/18 06:04:17;;;;;;;24.63;22.07;;;17.60;97.10;;;;;;5053229;28;20446;-74
2021/08/18 06:06:44;;;;;;;22.07;19.87;;;17.60;97.30;;;;;;5052838;28;21026;-74
2021/08/18 06:09:11;;;;;;;25.90;22.60;;;17.60;97.30;;;;;;5053151;28;20584;-74
2021/08/18 06:11:40;;;;;;;23.83;21.50;;;17.70;97.30;;;;;;5053207;28;20441;-74
2021/08/18 06:14:08;;;;;;;25.80;22.40;;;17.80;97.30;;;;;;5052834;28;20855;-74
2021/08/18 06:16:34;;;;;;;22.80;20.57;;;17.90;97.10;;;;;;5053201;28;20454;-74
2021/08/18 06:19:01;;;;;;;21.63;19.53;;;17.90;96.90;;;;;;5053100;28;20469;-76
2021/08/18 06:21:29;;;;;;;23.23;20.77;;;18.00;96.80;;;;;;5056095;28;20430;-74
2021/08/18 06:24:01;;;;;;;26.97;22.10;;;18.10;96.40;;;;;;5057053;28;20437;-74
2021/08/18 06:26:28;;;;;;;23.57;21.07;;;18.20;96.10;;;;;;5057209;28;20497;-74
2021/08/18 06:28:55;;;;;;;23.90;21.40;;;18.20;95.90;;;;;;5056894;28;21002;-75
2021/08/18 06:31:21;;;;;;;22.87;20.33;;;18.30;96.00;;;;;;5056898;28;20425;-75
2021/08/18 06:33:49;;;;;;;23.17;20.70;;;18.30;95.80;;;;;;5056816;28;20495;-75
2021/08/18 06:36:15;;;;;;;22.53;20.23;;;18.40;95.60;;;;;;5056801;28;20513;-75
2021/08/18 06:38:43;;;;;;;25.90;22.20;;;18.40;95.40;;;;;;5056643;28;20465;-74
2021/08/18 06:41:10;;;;;;;24.07;21.67;;;18.40;95.30;;;;;;5056695;28;20488;-74
2021/08/18 06:43:37;;;;;;;26.03;23.47;;;18.40;95.30;;;;;;5056312;28;20940;-74
2021/08/18 06:46:04;;;;;;;24.33;21.77;;;18.40;95.40;;;;;;5056522;28;20469;-75
2021/08/18 06:48:31;;;;;;;22.43;20.27;;;18.40;95.30;;;;;;5056489;28;20803;-74
2021/08/18 06:50:58;;;;;;;23.90;21.50;;;18.50;95.40;;;;;;5056186;28;20456;-74
2021/08/18 06:53:24;;;;;;;22.43;20.23;;;18.50;95.30;;;;;;5056428;28;20468;-74
2021/08/18 06:55:52;;;;;;;23.07;20.77;;;18.50;95.30;;;;;;5056427;28;20426;-75
2021/08/18 06:58:19;;;;;;;20.80;18.87;;;18.50;95.30;;;;;;5056287;28;20473;-74
2021/08/18 07:00:46;;;;;;;22.33;19.47;;;18.50;95.20;;;;;;5055952;28;20473;-74
2021/08/18 07:03:12;;;;;;;19.60;17.50;;;18.60;95.30;;;;;;5056304;28;20457;-74
2021/08/18 07:05:39;;;;;;;18.63;16.83;;;18.60;95.30;;;;;;5055885;28;20477;-75
2021/08/18 07:08:06;;;;;;;20.53;18.63;;;18.60;94.90;;;;;;5056349;28;20467;-74
2021/08/18 07:10:33;;;;;;;17.67;15.63;;;18.60;94.70;;;;;;5056114;28;20458;-74
2021/08/18 07:13:01;;;;;;;17.57;15.70;;;18.70;94.70;;;;;;5055817;28;20825;-74
2021/08/18 07:15:27;;;;;;;17.70;15.90;;;18.80;94.60;;;;;;5056247;28;20426;-74
2021/08/18 07:17:54;;;;;;;18.07;16.27;;;18.80;94.10;;;;;;5055901;28;20470;-75
2021/08/18 07:20:21;;;;;;;19.37;17.47;;;18.80;94.10;;;;;;5055906;28;20441;-75
2021/08/18 07:22:47;;;;;;;17.97;16.27;;;18.80;94.10;;;;;;5055850;28;20434;-75
2021/08/18 07:25:14;;;;;;;17.80;16.13;;;18.80;94.20;;;;;;5055740;28;20433;-74
2021/08/18 07:27:41;;;;;;;19.77;17.87;;;18.80;94.40;;;;;;5055690;28;20466;-75
2021/08/18 07:30:10;;;;;;;19.23;17.43;;;18.80;94.40;;;;;;5055757;28;20446;-75
2021/08/18 07:32:38;;;;;;;20.27;18.33;;;18.90;94.40;;;;;;5055601;28;20495;-75
2021/08/18 07:35:06;;;;;;;20.47;18.37;;;18.80;94.30;;;;;;5055722;28;20462;-74
2021/08/18 07:37:32;;;;;;;20.60;18.60;;;18.90;94.40;;;;;;5055526;28;20461;-75
2021/08/18 07:39:59;;;;;;;18.63;16.93;;;18.90;94.40;;;;;;5055535;28;20445;-75
2021/08/18 07:42:26;;;;;;;19.10;17.13;;;18.80;94.40;;;;;;5055492;28;20456;-75
2021/08/18 07:44:53;;;;;;;18.80;16.87;;;18.80;94.40;;;;;;5055486;28;20495;-75
2021/08/18 07:47:21;;;;;;;18.47;16.57;;;18.80;94.40;;;;;;5055020;28;20489;-75
2021/08/18 07:49:48;;;;;;;16.47;14.87;;;18.90;94.60;;;;;;5055352;28;20445;-76
2021/08/18 07:52:15;;;;;;;15.50;14.10;;;18.90;94.70;;;;;;5055347;28;20445;-76
2021/08/18 07:54:43;;;;;;;15.27;13.97;;;19.00;94.50;;;;;;5055288;28;20464;-75
2021/08/18 07:57:09;;;;;;;14.70;13.40;;;19.00;94.30;;;;;;5054899;28;20422;-75
2021/08/18 07:59:36;;;;;;;15.83;14.20;;;19.10;94.40;;;;;;5054905;28;20466;-75
2021/08/18 08:02:03;;;;;;;16.43;14.93;;;19.20;94.40;;;;;;5055148;28;20473;-75
2021/08/18 08:04:31;;;;;;;13.67;12.57;;;19.20;94.60;;;;;;5054782;28;20433;-74
2021/08/18 08:06:58;;;;;;;13.07;11.97;;;19.30;94.20;;;;;;5054867;28;20481;-74
2021/08/18 08:09:25;;;;;;;11.97;10.83;;;19.30;93.70;;;;;;5054632;28;20900;-74
2021/08/18 08:11:51;;;;;;;11.67;10.47;;;19.30;93.60;;;;;;5054988;28;20426;-74
2021/08/18 08:14:18;;;;;;;11.90;10.87;;;19.40;93.40;;;;;;5054895;28;20445;-75
2021/08/18 08:16:45;;;;;;;11.60;10.60;;;19.40;93.40;;;;;;5054847;28;20445;-75
2021/08/18 08:19:12;;;;;;;11.37;10.40;;;19.40;93.50;;;;;;5054684;28;20474;-75
2021/08/18 08:21:40;;;;;;;12.63;11.43;;;19.40;93.40;;;;;;5054737;28;20791;-75
2021/08/18 08:24:07;;;;;;;11.90;10.90;;;19.40;93.60;;;;;;5055176;28;20453;-75
2021/08/18 08:26:33;;;;;;;10.73;9.83;;;19.40;93.60;;;;;;5054490;28;20481;-76
2021/08/18 08:29:00;;;;;;;9.00;8.30;;;19.50;93.40;;;;;;5054569;28;20462;-76
2021/08/18 08:31:27;;;;;;;8.50;7.80;;;19.50;93.30;;;;;;5054527;28;20441;-76
2021/08/18 08:33:53;;;;;;;7.10;6.50;;;19.50;93.20;;;;;;5054501;28;20453;-76
2021/08/18 08:36:20;;;;;;;7.70;7.20;;;19.60;93.20;;;;;;5054452;28;20430;-76
2021/08/18 08:38:48;;;;;;;7.00;6.40;;;19.70;93.20;;;;;;5054049;28;21023;-76
2021/08/18 08:41:15;;;;;;;5.80;5.10;;;19.80;93.00;;;;;;5054595;28;20437;-76
2021/08/18 08:43:42;;;;;;;7.37;5.07;;;19.80;92.30;;;;;;5054005;28;20496;-76
2021/08/18 08:46:09;;;;;;;4.83;4.43;;;19.90;92.50;;;;;;5054209;28;20477;-76
2021/08/18 08:48:39;;;;;;;4.80;4.50;;;20.10;92.50;;;;;;5054067;28;20561;-76
2021/08/18 08:51:06;;;;;;;4.90;4.50;;;20.30;92.40;;;;;;5054282;28;20438;-76
2021/08/18 08:53:33;;;;;;;4.47;4.17;;;20.50;92.20;;;;;;5054148;28;20525;-76
2021/08/18 08:56:01;;;;;;;5.20;4.80;;;20.60;91.20;;;;;;5054175;28;20441;-76
2021/08/18 08:58:28;;;;;;;4.60;4.30;;;20.80;91.00;;;;;;5053961;28;20471;-76
2021/08/18 09:00:55;;;;;;;4.67;4.37;;;20.80;90.50;;;;;;5053681;28;20476;-76
2021/08/18 09:03:23;;;;;;;3.20;3.00;;;20.80;90.60;;;;;;5053959;28;20446;-76
2021/08/18 09:05:51;;;;;;;4.20;3.90;;;20.80;90.10;;;;;;5053810;28;20481;-76
2021/08/18 09:08:19;;;;;;;5.77;4.37;;;20.70;90.00;;;;;;5053858;28;20468;-76
2021/08/18 09:11:07;;;;;;;4.63;4.23;;;20.70;90.10;;;;;;5053806;28;20450;-76
2021/08/18 09:13:42;;;;;;;4.10;3.80;;;20.70;90.40;;;;;;5053906;28;20429;-76
2021/08/18 09:16:10;;;;;;;3.70;3.40;;;20.70;90.40;;;;;;5053811;28;20422;-76
2021/08/18 09:18:39;;;;;;;5.83;3.93;;;20.70;90.40;;;;;;5053682;28;20446;-76
2021/08/18 09:21:34;;;;;;;4.97;4.57;;;20.70;90.10;;;;;;5053767;28;20432;-76
2021/08/18 09:24:21;;;;;;;4.20;3.90;;;20.60;89.60;;;;;;5053654;28;20449;-76
2021/08/18 09:26:52;;;;;;;5.03;4.70;;;20.50;90.20;;;;;;5053580;28;20473;-76
2021/08/18 09:29:33;;;;;;;3.93;3.70;;;20.40;90.50;;;;;;5053470;28;20480;-76
2021/08/18 09:32:20;;;;;;;3.20;3.00;;;20.40;90.60;;;;;;5053610;28;20438;-76
2021/08/18 09:34:51;;;;;;;2.67;2.47;;;20.30;90.50;;;;;;5053567;28;20430;-76
2021/08/18 09:37:18;;;;;;;2.60;2.40;;;20.20;90.40;;;;;;5053337;28;20472;-76
2021/08/18 09:39:45;;;;;;;2.80;2.60;;;20.20;90.30;;;;;;5053474;28;20433;-75
2021/08/18 09:42:25;;;;;;;2.07;1.97;;;20.10;90.30;;;;;;5053413;28;20460;-75
2021/08/18 09:45:07;;;;;;;2.60;2.40;;;20.00;90.30;;;;;;5053340;28;20438;-76
2021/08/18 09:47:34;;;;;;;2.77;2.57;;;20.00;90.30;;;;;;5053285;28;20849;-76
2021/08/18 09:50:01;;;;;;;3.40;2.30;;;20.10;90.20;;;;;;5053305;28;20442;-76
2021/08/18 09:52:27;;;;;;;2.63;2.43;;;20.20;90.20;;;;;;5054115;28;20826;-76
2021/08/18 09:55:03;;;;;;;3.27;2.93;;;20.40;90.10;;;;;;5053807;28;20445;-76
2021/08/18 09:57:31;;;;;;;3.10;2.90;;;20.40;89.40;;;;;;5057426;28;20528;-76
2021/08/18 09:59:59;;;;;;;2.40;2.20;;;20.50;89.00;;;;;;5057099;28;20495;-76
2021/08/18 10:02:26;;;;;;;2.60;2.40;;;20.40;88.90;;;;;;5057382;28;20813;-76
2021/08/18 10:04:55;;;;;;;2.97;2.67;;;20.40;87.50;;;;;;5057319;28;20445;-76
2021/08/18 10:07:23;;;;;;;2.60;2.40;;;20.30;87.00;;;;;;5057134;28;20477;-76
2021/08/18 10:09:50;;;;;;;5.40;3.17;;;20.20;87.20;;;;;;5057263;28;20442;-76
2021/08/18 10:12:16;;;;;;;6.33;3.80;;;20.30;87.90;;;;;;5057787;28;20445;-76
2021/08/18 10:14:45;;;;;;;3.93;3.37;;;20.40;88.20;;;;;;5056843;28;21042;-76
2021/08/18 10:17:11;;;;;;;4.20;2.60;;;20.50;87.70;;;;;;5057064;28;20449;-76
2021/08/18 10:19:38;;;;;;;5.20;2.90;;;20.70;87.30;;;;;;5057131;28;20504;-76
2021/08/18 10:22:05;;;;;;;7.30;3.20;;;20.80;86.00;;;;;;5057328;28;20442;-76
2021/08/18 10:24:35;;;;;;;4.73;3.00;;;20.90;85.60;;;;;;5056955;28;20923;-76
2021/08/18 10:27:04;;;;;;;6.40;3.97;;;20.90;84.90;;;;;;5056728;28;20481;-76
2021/08/18 10:29:33;;;;;;;4.07;3.70;;;21.00;84.60;;;;;;5056859;28;20433;-76
2021/08/18 10:32:07;;;;;;;3.70;3.40;;;20.90;84.80;;;;;;5056840;28;20445;-76
2021/08/18 10:34:42;;;;;;;4.40;3.80;;;21.00;85.30;;;;;;5056810;28;20445;-76
2021/08/18 10:37:27;;;;;;;4.87;4.47;;;21.00;85.00;;;;;;5056684;28;20452;-76
2021/08/18 10:39:56;;;;;;;6.33;5.73;;;21.20;84.30;;;;;;5056714;28;20433;-76
2021/08/18 10:42:35;;;;;;;6.27;5.67;;;21.30;83.70;;;;;;5056377;28;20799;-76
2021/08/18 10:45:02;;;;;;;7.43;6.63;;;21.30;83.10;;;;;;5056301;28;20852;-75
2021/08/18 10:47:39;;;;;;;6.43;5.90;;;21.50;83.50;;;;;;5056395;28;20485;-75
2021/08/18 10:50:38;;;;;;;6.33;5.73;;;21.70;82.90;;;;;;5056620;28;20856;-75
2021/08/18 10:53:13;;;;;;;7.60;6.80;;;21.80;81.60;;;;;;5056525;28;20513;-75
2021/08/18 10:55:40;;;;;;;7.67;6.40;;;22.00;81.20;;;;;;5056454;28;20433;-75
2021/08/18 10:58:07;;;;;;;7.73;7.10;;;22.10;80.80;;;;;;5056270;28;20465;-75
2021/08/18 11:00:36;;;;;;;6.87;6.30;;;22.20;80.20;;;;;;5056190;28;20449;-75
2021/08/18 11:03:06;;;;;;;8.07;7.47;;;22.30;80.20;;;;;;5056268;28;20441;-75
2021/08/18 11:05:46;;;;;;;8.90;8.00;;;22.40;80.40;;;;;;5055587;28;20426;-75
2021/08/18 11:08:15;;;;;;;9.30;8.40;;;22.50;80.90;;;;;;5055992;28;20492;-76
2021/08/18 11:11:06;;;;;;;13.03;9.57;;;22.60;80.50;;;;;;5056092;28;20449;-75
2021/08/18 11:13:39;;;;;;;11.00;9.90;;;22.50;79.30;;;;;;5055704;28;20536;-75
2021/08/18 11:16:08;;;;;;;10.23;9.43;;;22.50;79.40;;;;;;5055919;28;20908;-75
2021/08/18 11:18:36;;;;;;;9.87;9.07;;;22.40;79.70;;;;;;5055602;28;20473;-75
2021/08/18 11:21:04;;;;;;;12.13;10.93;;;22.40;79.70;;;;;;5055986;28;20434;-75
2021/08/18 11:23:33;;;;;;;13.30;12.20;;;22.40;79.60;;;;;;5055942;28;20492;-75
2021/08/18 11:26:02;;;;;;;12.33;11.33;;;22.30;79.70;;;;;;5055819;28;20452;-75
2021/08/18 11:28:31;;;;;;;13.50;12.30;;;22.20;80.00;;;;;;5055613;28;20497;-76
2021/08/18 11:31:01;;;;;;;12.40;11.33;;;22.10;80.10;;;;;;5055794;28;20461;-75
2021/08/18 11:33:29;;;;;;;13.50;12.40;;;22.00;80.60;;;;;;5055481;28;20804;-76
2021/08/18 11:35:56;;;;;;;13.13;11.90;;;21.80;80.60;;;;;;5055674;28;20457;-75
2021/08/18 11:38:23;;;;;;;12.93;11.83;;;21.70;81.20;;;;;;5055561;28;20470;-75
2021/08/18 11:40:52;;;;;;;14.03;12.83;;;21.70;81.80;;;;;;5056624;28;20822;-75
2021/08/18 11:43:35;;;;;;;13.40;12.20;;;21.80;82.10;;;;;;5055826;28;20532;-75
2021/08/18 11:46:03;;;;;;;13.57;12.37;;;22.00;82.30;;;;;;5055407;28;20432;-75
2021/08/18 11:48:30;;;;;;;10.60;9.70;;;22.30;81.90;;;;;;5056009;28;20481;-75
2021/08/18 11:50:57;;;;;;;12.20;11.20;;;22.50;81.10;;;;;;5055589;28;20449;-75
2021/08/18 11:53:25;;;;;;;11.20;10.20;;;22.60;80.40;;;;;;5055354;28;20446;-75
2021/08/18 11:55:59;;;;;;;12.03;10.93;;;22.60;79.00;;;;;;5055214;28;20520;-75
2021/08/18 11:58:32;;;;;;;11.70;10.80;;;22.60;78.70;;;;;;5054798;28;21013;-75
2021/08/18 12:01:01;;;;;;;12.10;10.43;;;22.80;78.70;;;;;;5054747;28;20461;-75
2021/08/18 12:03:30;;;;;;;12.17;11.07;;;23.00;78.60;;;;;;5055113;28;20446;-75
2021/08/18 12:06:01;;;;;;;10.47;9.53;;;23.40;77.60;;;;;;5055029;28;20481;-75
2021/08/18 12:08:40;;;;;;;10.83;9.93;;;23.70;75.60;;;;;;5054560;28;20995;-75
2021/08/18 12:11:09;;;;;;;9.13;8.40;;;24.00;74.70;;;;;;5054687;28;20920;-75
2021/08/18 12:13:40;;;;;;;9.53;8.83;;;24.10;73.80;;;;;;5054985;28;20453;-75
2021/08/18 12:16:31;;;;;;;9.67;8.80;;;24.20;73.00;;;;;;5054910;28;20452;-75
2021/08/18 12:19:15;;;;;;;9.67;8.87;;;24.10;72.60;;;;;;5053981;28;20454;-75
2021/08/18 12:21:42;;;;;;;11.00;9.67;;;23.90;72.60;;;;;;5054831;28;20475;-75
2021/08/18 12:24:11;;;;;;;10.77;8.87;;;23.80;72.90;;;;;;5054737;28;20449;-75
2021/08/18 12:26:40;;;;;;;10.63;9.63;;;23.60;73.20;;;;;;5054922;28;20481;-75
2021/08/18 12:29:08;;;;;;;12.77;10.40;;;23.30;74.00;;;;;;5054537;28;20552;-75
2021/08/18 12:31:57;;;;;;;10.93;9.93;;;23.00;74.90;;;;;;5054575;28;20441;-75
2021/08/18 12:34:34;;;;;;;10.60;9.70;;;22.80;75.70;;;;;;5054565;28;20430;-75
2021/08/18 12:37:02;;;;;;;10.10;9.20;;;22.70;76.90;;;;;;5054156;28;20794;-75